Time;durP1;ratioP1;P1;durP2;ratioP2;P2;SDS_P1;SDS_P2;PMS_P1;PMS_P2;Temp;Humidity;BMP_temperature;BMP_pressure;BME280_temperature;BME280_humidity;BME280_pressure;Samples;Min_cycle;Max_cycle;Signal;HPM_P1;HPM_P2
2023/12/24 00:01:03;;;;;;;0.90;0.90;;;;;;;7.69;78.97;99078.09;5068824;28;20348;-79
2023/12/24 00:03:32;;;;;;;3.23;2.40;;;;;;;7.52;79.36;99053.00;5109195;28;20205;-79
2023/12/24 00:05:59;;;;;;;1.20;1.20;;;;;;;7.55;79.26;99053.00;5097002;28;20217;-78
2023/12/24 00:08:28;;;;;;;1.00;1.00;;;;;;;7.47;80.25;99051.22;5110483;28;20201;-78
2023/12/24 00:10:55;;;;;;;0.90;0.90;;;;;;;7.66;80.95;99080.66;5108329;28;20221;-78
2023/12/24 00:13:22;;;;;;;1.10;1.10;;;;;;;7.66;81.33;99087.53;5123224;28;20223;-79
2023/12/24 00:15:49;;;;;;;0.80;0.80;;;;;;;7.66;82.02;99077.22;5123181;28;20209;-78
2023/12/24 00:18:15;;;;;;;0.70;0.70;;;;;;;7.54;82.75;99064.16;5053230;28;20202;-79
2023/12/24 00:20:44;;;;;;;0.70;0.70;;;;;;;7.61;83.36;99064.25;5122695;28;20200;-79
2023/12/24 00:23:11;;;;;;;1.63;1.53;;;;;;;7.74;83.56;99075.59;5105006;28;20198;-80
2023/12/24 00:25:39;;;;;;;0.80;0.80;;;;;;;7.94;83.92;99097.28;5098455;28;20205;-79
2023/12/24 00:28:06;;;;;;;0.70;0.70;;;;;;;7.65;84.54;99029.91;5095651;28;20210;-80
2023/12/24 00:30:34;;;;;;;0.67;0.67;;;;;;;8.24;84.39;99094.94;5100269;28;20205;-81
2023/12/24 00:33:01;;;;;;;0.70;0.70;;;;;;;8.42;84.04;99086.50;5107257;28;20584;-80
2023/12/24 00:35:28;;;;;;;0.70;0.70;;;;;;;8.41;83.54;99082.22;5110017;28;20230;-79
2023/12/24 00:37:58;;;;;;;1.73;1.67;;;;;;;8.63;84.40;99109.06;5105055;28;20220;-80
2023/12/24 00:40:25;;;;;;;0.80;0.80;;;;;;;8.74;84.21;99120.34;5120841;28;20645;-80
2023/12/24 00:42:52;;;;;;;0.70;0.70;;;;;;;8.75;84.04;99130.69;5103569;28;20202;-80
2023/12/24 00:45:19;;;;;;;0.83;0.83;;;;;;;8.76;84.97;99136.72;5114692;28;20189;-80
2023/12/24 00:47:46;;;;;;;7.50;1.13;;;;;;;8.77;85.38;99138.47;5114662;28;20198;-79
2023/12/24 00:50:13;;;;;;;0.80;0.80;;;;;;;8.84;85.82;99135.06;5068561;28;20206;-79
2023/12/24 00:52:39;;;;;;;0.80;0.80;;;;;;;9.05;86.13;99137.78;5116375;28;20189;-79
2023/12/24 00:55:08;;;;;;;0.90;0.90;;;;;;;9.31;84.91;99149.09;5053229;28;20205;-79
2023/12/24 00:57:37;;;;;;;1.00;1.00;;;;;;;9.50;83.99;99146.59;5104098;28;20661;-79
2023/12/24 01:00:05;;;;;;;1.10;1.10;;;;;;;9.40;82.66;99105.19;5099501;28;20202;-78
2023/12/24 01:02:32;;;;;;;0.70;0.70;;;;;;;9.75;82.04;99153.59;5072727;28;20205;-79
2023/12/24 01:04:59;;;;;;;0.70;0.70;;;;;;;9.63;81.36;99114.75;5100805;28;20235;-78
2023/12/24 01:07:25;;;;;;;0.63;0.63;;;;;;;9.91;81.18;99152.81;5109077;28;20612;-80
2023/12/24 01:09:52;;;;;;;0.73;0.73;;;;;;;9.85;81.12;99163.13;5115698;28;20213;-79
2023/12/24 01:12:20;;;;;;;0.70;0.70;;;;;;;9.95;80.91;99165.75;5103159;28;20308;-79
2023/12/24 01:14:47;;;;;;;0.70;0.70;;;;;;;9.95;80.62;99164.91;5100597;28;20233;-79
2023/12/24 01:17:14;;;;;;;0.80;0.80;;;;;;;9.95;80.78;99175.25;5111460;28;20208;-80
2023/12/24 01:19:41;;;;;;;1.00;1.00;;;;;;;9.95;80.71;99175.25;5121833;28;20201;-79
2023/12/24 01:22:08;;;;;;;0.70;0.70;;;;;;;10.03;80.12;99177.84;5115343;28;20221;-79
2023/12/24 01:24:35;;;;;;;0.90;0.90;;;;;;;10.02;79.78;99173.53;5107787;28;20206;-80
2023/12/24 01:27:02;;;;;;;0.70;0.70;;;;;;;10.02;79.77;99171.81;5116728;28;20206;-79
2023/12/24 01:29:30;;;;;;;0.70;0.70;;;;;;;10.12;80.31;99199.47;5121580;28;20190;-80
2023/12/24 01:31:56;;;;;;;0.68;0.68;;;;;;;10.02;80.69;99192.53;5084508;28;20210;-79
2023/12/24 01:34:23;;;;;;;0.90;0.90;;;;;;;10.08;80.29;99202.03;5110543;28;20255;-79
2023/12/24 01:36:50;;;;;;;0.63;0.63;;;;;;;10.10;80.11;99202.88;5102397;28;20209;-80
2023/12/24 01:39:19;;;;;;;0.70;0.70;;;;;;;10.02;80.02;99174.41;5109291;28;20201;-78
2023/12/24 01:41:47;;;;;;;0.98;0.98;;;;;;;9.96;80.03;99166.59;5108905;28;20189;-79
2023/12/24 01:44:14;;;;;;;1.23;0.83;;;;;;;10.14;80.05;99195.19;5098167;28;20202;-79
2023/12/24 01:46:42;;;;;;;1.20;1.20;;;;;;;10.15;80.39;99204.69;5056674;28;20194;-78
2023/12/24 01:49:12;;;;;;;0.80;0.80;;;;;;;10.08;80.97;99218.44;5104043;28;20206;-79
2023/12/24 01:51:39;;;;;;;1.00;1.00;;;;;;;10.12;80.79;99209.81;5096582;28;20198;-78
2023/12/24 01:54:07;;;;;;;0.70;0.70;;;;;;;10.14;80.67;99215.00;5113878;28;20225;-79
2023/12/24 01:56:34;;;;;;;0.80;0.80;;;;;;;10.09;80.58;99189.09;5093171;28;20198;-79
2023/12/24 01:59:02;;;;;;;0.70;0.70;;;;;;;10.16;80.91;99205.56;5104849;28;20608;-79
2023/12/24 02:01:29;;;;;;;0.83;0.83;;;;;;;10.07;81.22;99198.56;5094590;28;20269;-78
2023/12/24 02:03:57;;;;;;;1.23;1.23;;;;;;;10.15;81.13;99202.09;5106773;28;20660;-79
2023/12/24 02:06:26;;;;;;;0.85;0.85;;;;;;;10.06;81.25;99193.41;5112387;28;20228;-79
2023/12/24 02:08:53;;;;;;;1.00;1.00;;;;;;;10.18;81.07;99225.41;5084769;28;20230;-80
2023/12/24 02:11:22;;;;;;;0.70;0.70;;;;;;;10.20;81.39;99223.66;5097585;28;20197;-80
2023/12/24 02:13:49;;;;;;;0.70;0.70;;;;;;;10.10;81.11;99211.53;5097508;28;20249;-79
2023/12/24 02:16:20;;;;;;;0.60;0.60;;;;;;;10.19;81.72;99237.50;5092831;28;20193;-81
2023/12/24 02:18:47;;;;;;;0.80;0.80;;;;;;;10.11;81.28;99213.28;5092635;28;20225;-80
2023/12/24 02:21:15;;;;;;;1.40;1.40;;;;;;;9.68;81.68;99146.69;5092674;28;20202;-79
2023/12/24 02:23:42;;;;;;;0.60;0.60;;;;;;;10.27;80.99;99255.66;5062684;28;20209;-79
2023/12/24 02:26:16;;;;;;;0.80;0.80;;;;;;;10.26;80.45;99239.25;5056499;28;20205;-81
2023/12/24 02:28:48;;;;;;;0.80;0.80;;;;;;;10.31;80.81;99268.59;5108798;28;20204;-80
2023/12/24 02:31:19;;;;;;;0.80;0.80;;;;;;;10.04;81.12;99226.19;5112773;28;20204;-80
2023/12/24 02:33:50;;;;;;;0.80;0.80;;;;;;;10.31;80.97;99268.59;5098743;28;20701;-81
2023/12/24 02:36:18;;;;;;;0.80;0.80;;;;;;;10.33;81.55;99274.69;5098129;28;20208;-80
2023/12/24 02:38:45;;;;;;;0.70;0.70;;;;;;;10.24;81.64;99264.28;5094991;28;20206;-80
2023/12/24 02:41:12;;;;;;;1.00;1.00;;;;;;;10.19;81.55;99285.84;5091263;28;20210;-80
2023/12/24 02:43:39;;;;;;;0.90;0.90;;;;;;;10.03;81.86;99255.53;5098408;28;20202;-80
2023/12/24 02:46:06;;;;;;;0.70;0.70;;;;;;;10.17;81.94;99288.44;5101775;28;20269;-79
2023/12/24 02:48:32;;;;;;;0.70;0.70;;;;;;;10.11;82.26;99283.19;5092163;28;20237;-79
2023/12/24 02:50:59;;;;;;;0.90;0.90;;;;;;;10.12;82.65;99282.34;5071599;28;20199;-78
2023/12/24 02:53:27;;;;;;;0.60;0.60;;;;;;;10.01;83.37;99294.38;5092317;28;20622;-80
2023/12/24 02:55:54;;;;;;;0.80;0.80;;;;;;;10.00;83.65;99291.78;5098499;28;20256;-80
2023/12/24 02:58:21;;;;;;;0.80;0.80;;;;;;;9.97;84.03;99297.81;5093615;28;20195;-81
2023/12/24 03:00:47;;;;;;;0.80;0.80;;;;;;;9.94;84.46;99300.41;5094866;28;20190;-80
2023/12/24 03:03:14;;;;;;;1.25;1.25;;;;;;;9.88;85.18;99308.13;5100238;28;20227;-80
2023/12/24 03:05:41;;;;;;;1.10;1.10;;;;;;;9.89;84.92;99304.66;5093051;28;20201;-79
2023/12/24 03:08:08;;;;;;;0.70;0.70;;;;;;;9.90;84.62;99301.22;5098774;28;20216;-79
2023/12/24 03:10:36;;;;;;;1.07;1.07;;;;;;;9.89;84.59;99292.59;5091537;28;20190;-79
2023/12/24 03:13:03;;;;;;;1.07;1.00;;;;;;;9.87;85.24;99321.94;5092735;28;20210;-81
2023/12/24 03:15:29;;;;;;;0.77;0.77;;;;;;;9.76;85.28;99302.88;5092078;28;20231;-80
2023/12/24 03:17:56;;;;;;;0.63;0.63;;;;;;;9.82;85.08;99315.84;5092326;28;20290;-80
2023/12/24 03:20:23;;;;;;;0.70;0.70;;;;;;;9.79;86.17;99318.44;5091112;28;20206;-80
2023/12/24 03:22:50;;;;;;;0.63;0.63;;;;;;;9.78;85.97;99319.28;5092601;28;20207;-78
2023/12/24 03:25:16;;;;;;;0.90;0.90;;;;;;;9.82;85.85;99331.38;5090991;28;20197;-79
2023/12/24 03:27:44;;;;;;;0.90;0.90;;;;;;;9.90;85.60;99325.41;5096920;28;20254;-78
2023/12/24 03:30:12;;;;;;;0.80;0.80;;;;;;;9.87;85.70;99343.50;5110647;28;20197;-79
2023/12/24 03:32:39;;;;;;;0.80;0.80;;;;;;;9.53;86.25;99310.50;5101839;28;20198;-80
2023/12/24 03:35:06;;;;;;;1.00;1.00;;;;;;;9.71;87.23;99348.56;5093329;28;20233;-81
2023/12/24 03:37:33;;;;;;;0.80;0.80;;;;;;;9.64;87.58;99339.03;5106861;28;20202;-81
2023/12/24 03:40:00;;;;;;;0.70;0.70;;;;;;;9.68;87.91;99353.72;5091360;28;20279;-79
2023/12/24 03:42:26;;;;;;;5.28;0.98;;;;;;;9.64;88.30;99360.59;5097951;28;20190;-81
2023/12/24 03:44:55;;;;;;;0.70;0.70;;;;;;;9.66;88.54;99358.03;5108913;28;20247;-80
2023/12/24 03:47:21;;;;;;;0.80;0.80;;;;;;;9.57;89.03;99342.44;5103632;28;20190;-80
2023/12/24 03:49:48;;;;;;;0.70;0.70;;;;;;;9.58;89.33;99355.41;5110839;28;20197;-80
2023/12/24 03:52:15;;;;;;;0.60;0.60;;;;;;;9.57;89.81;99353.66;5108425;28;20201;-79
2023/12/24 03:54:42;;;;;;;0.80;0.80;;;;;;;9.57;90.41;99365.72;5092913;28;20724;-79
2023/12/24 03:57:08;;;;;;;0.70;0.70;;;;;;;9.53;90.84;99369.13;5092727;28;20198;-80
2023/12/24 03:59:35;;;;;;;0.60;0.60;;;;;;;9.48;91.24;99378.59;5096649;28;20206;-77
2023/12/24 04:02:03;;;;;;;0.70;0.70;;;;;;;9.55;91.61;99388.16;5085835;28;20202;-79
2023/12/24 04:04:30;;;;;;;1.20;1.20;;;;;;;9.49;91.90;99380.34;5089657;28;20644;-80
2023/12/24 04:06:57;;;;;;;0.70;0.70;;;;;;;9.42;92.47;99390.63;5102117;28;20205;-80
2023/12/24 04:09:24;;;;;;;0.60;0.60;;;;;;;8.99;93.10;99325.59;5105600;28;20212;-80
2023/12/24 04:11:51;;;;;;;0.70;0.70;;;;;;;9.36;93.85;99402.66;5096779;28;20190;-80
2023/12/24 04:14:18;;;;;;;0.90;0.90;;;;;;;9.43;93.87;99413.06;5091392;28;20313;-80
2023/12/24 04:16:45;;;;;;;0.93;0.93;;;;;;;9.44;94.02;99414.81;5104987;28;20215;-80
2023/12/24 04:19:13;;;;;;;0.70;0.70;;;;;;;9.52;94.20;99422.63;5107670;28;20204;-81
2023/12/24 04:21:39;;;;;;;0.90;0.90;;;;;;;9.44;94.30;99429.47;5085614;28;20312;-80
2023/12/24 04:24:07;;;;;;;3.23;1.80;;;;;;;9.54;93.98;99436.44;5090309;28;20277;-80
2023/12/24 04:26:36;;;;;;;0.90;0.90;;;;;;;9.53;94.75;99444.19;5090771;28;20583;-79
2023/12/24 04:29:03;;;;;;;0.70;0.70;;;;;;;9.41;95.44;99455.31;5049334;28;20205;-80
2023/12/24 04:31:30;;;;;;;0.90;0.90;;;;;;;9.27;96.16;99460.34;5099132;28;20637;-80
2023/12/24 04:33:57;;;;;;;0.70;0.70;;;;;;;9.07;96.74;99438.56;5099942;28;20229;-79
2023/12/24 04:36:25;;;;;;;0.87;0.87;;;;;;;9.02;99.96;99475.59;5093544;28;20590;-79
2023/12/24 04:38:51;;;;;;;0.70;0.70;;;;;;;8.91;100.00;99493.56;5105102;28;20259;-79
2023/12/24 04:41:18;;;;;;;0.70;0.70;;;;;;;8.52;98.99;99486.16;5043021;28;20198;-79
2023/12/24 04:43:45;;;;;;;0.80;0.80;;;;;;;8.14;100.00;99501.06;5058045;28;20589;-79
2023/12/24 04:46:12;;;;;;;1.00;1.00;;;;;;;7.54;100.00;99453.63;5108472;28;20186;-79
2023/12/24 04:48:39;;;;;;;0.80;0.80;;;;;;;7.63;100.00;99515.72;5102552;28;20194;-79
2023/12/24 04:51:06;;;;;;;0.70;0.70;;;;;;;7.33;100.00;99514.31;5097295;28;20209;-79
2023/12/24 04:53:34;;;;;;;0.80;0.80;;;;;;;7.03;100.00;99529.16;5098585;28;20225;-79
2023/12/24 04:56:01;;;;;;;1.10;1.10;;;;;;;6.40;100.00;99511.53;5076703;28;20249;-78
2023/12/24 04:58:27;;;;;;;1.00;1.00;;;;;;;6.47;100.00;99539.16;5061224;28;20201;-78
2023/12/24 05:00:54;;;;;;;0.93;0.93;;;;;;;6.32;100.00;99533.66;5112497;28;20270;-78
2023/12/24 05:03:21;;;;;;;0.90;0.90;;;;;;;6.11;100.00;99512.56;5104845;28;20206;-79
2023/12/24 05:05:48;;;;;;;1.13;1.13;;;;;;;6.13;100.00;99543.50;5095121;28;20225;-79
2023/12/24 05:08:15;;;;;;;0.83;0.83;;;;;;;6.11;100.00;99548.59;5108997;28;20200;-79
2023/12/24 05:10:44;;;;;;;1.30;1.30;;;;;;;6.20;100.00;99542.81;5094888;28;20206;-79
2023/12/24 05:13:10;;;;;;;0.90;0.90;;;;;;;6.23;100.00;99551.47;5093662;28;20202;-79
2023/12/24 05:15:37;;;;;;;1.10;1.10;;;;;;;6.21;100.00;99550.56;5093511;28;20229;-79
2023/12/24 05:18:04;;;;;;;1.57;1.50;;;;;;;6.22;100.00;99557.44;5095340;28;20198;-79
2023/12/24 05:20:31;;;;;;;1.00;1.00;;;;;;;6.15;100.00;99559.84;5093509;28;20194;-79
2023/12/24 05:22:58;;;;;;;1.00;1.00;;;;;;;5.97;100.00;99548.28;5099512;28;20202;-79
2023/12/24 05:25:25;;;;;;;2.00;1.90;;;;;;;6.12;100.00;99559.75;5094016;28;20190;-79
2023/12/24 05:27:53;;;;;;;1.67;1.67;;;;;;;6.04;100.00;99536.41;5086568;28;20209;-78
2023/12/24 05:30:20;;;;;;;3.30;2.77;;;;;;;6.22;100.00;99561.72;5097934;28;20205;-79
2023/12/24 05:32:46;;;;;;;0.80;0.80;;;;;;;6.26;100.00;99572.13;5103926;28;20209;-78
2023/12/24 05:35:13;;;;;;;0.93;0.93;;;;;;;6.31;100.00;99567.09;5093111;28;20663;-79
2023/12/24 05:37:40;;;;;;;1.80;1.37;;;;;;;6.26;100.00;99554.13;5104530;28;20195;-79
2023/12/24 05:40:08;;;;;;;0.90;0.90;;;;;;;6.46;100.00;99565.72;5090763;28;20205;-78
2023/12/24 05:42:34;;;;;;;0.80;0.80;;;;;;;6.45;100.00;99546.00;5041672;28;20690;-77
2023/12/24 05:45:03;;;;;;;1.07;1.07;;;;;;;6.63;100.00;99550.69;5092603;28;20209;-78
2023/12/24 05:47:29;;;;;;;0.80;0.80;;;;;;;6.76;100.00;99567.25;5094665;28;20206;-72
2023/12/24 05:49:56;;;;;;;1.00;1.00;;;;;;;6.80;100.00;99572.53;5093207;28;20210;-78
2023/12/24 05:52:23;;;;;;;1.40;1.40;;;;;;;6.84;100.00;99570.88;5098037;28;20216;-79
2023/12/24 05:54:54;;;;;;;1.00;1.00;;;;;;;6.84;100.00;99550.28;5093031;28;20222;-77
2023/12/24 05:57:21;;;;;;;1.43;1.43;;;;;;;6.95;100.00;99570.28;5101742;28;20197;-77
2023/12/24 05:59:48;;;;;;;0.80;0.80;;;;;;;7.01;100.00;99564.38;5101539;28;20210;-81
2023/12/24 06:02:18;;;;;;;1.47;1.47;;;;;;;7.14;100.00;99583.50;5058614;28;20205;-81
2023/12/24 06:04:45;;;;;;;2.17;2.07;;;;;;;7.25;100.00;99587.19;5097270;28;20205;-82
2023/12/24 06:07:11;;;;;;;2.67;2.47;;;;;;;7.29;100.00;99570.94;5095112;28;20665;-82
2023/12/24 06:09:38;;;;;;;2.27;2.13;;;;;;;6.89;100.00;99492.81;5094522;28;20202;-78
2023/12/24 06:12:07;;;;;;;0.80;0.80;;;;;;;7.47;100.00;99563.56;5104029;28;20205;-81
2023/12/24 06:14:34;;;;;;;5.03;3.80;;;;;;;7.80;100.00;99595.16;5097175;28;20202;-76
2023/12/24 06:17:01;;;;;;;1.50;1.50;;;;;;;7.74;100.00;99561.47;5104164;28;20199;-78
2023/12/24 06:19:29;;;;;;;2.57;2.47;;;;;;;7.95;100.00;99589.41;5109417;28;20258;-78
2023/12/24 06:21:56;;;;;;;2.57;2.47;;;;;;;7.79;100.00;99595.97;5113292;28;20253;-79
2023/12/24 06:24:24;;;;;;;1.90;1.90;;;;;;;7.86;100.00;99589.22;5073047;28;20206;-76
2023/12/24 06:26:52;;;;;;;1.67;1.67;;;;;;;7.93;100.00;99593.66;5074196;28;20198;-78
2023/12/24 06:29:19;;;;;;;2.13;1.93;;;;;;;8.08;100.00;99590.47;5091028;28;20237;-74
2023/12/24 06:31:45;;;;;;;1.60;1.50;;;;;;;8.08;100.00;99601.66;5091982;28;20210;-79
2023/12/24 06:34:12;;;;;;;0.90;0.90;;;;;;;8.21;100.00;99601.00;5094166;28;21091;-78
2023/12/24 06:36:41;;;;;;;1.63;1.53;;;;;;;8.34;100.00;99608.16;5085713;28;20643;-76
2023/12/24 06:39:07;;;;;;;0.70;0.70;;;;;;;8.48;100.00;99608.38;5050881;28;20208;-77
2023/12/24 06:41:34;;;;;;;3.80;2.50;;;;;;;8.63;100.00;99616.38;5109573;28;20205;-75
2023/12/24 06:44:01;;;;;;;1.73;1.73;;;;;;;8.79;100.00;99623.50;5079947;28;20210;-75
2023/12/24 06:46:27;;;;;;;0.67;0.67;;;;;;;8.82;100.00;99601.97;5033794;28;20214;-73
2023/12/24 06:48:54;;;;;;;0.70;0.70;;;;;;;8.96;100.00;99639.25;5076863;28;20198;-71
2023/12/24 06:51:21;;;;;;;2.00;1.93;;;;;;;8.93;100.00;99611.63;5090220;28;20210;-74
2023/12/24 06:53:49;;;;;;;1.03;1.03;;;;;;;9.19;100.00;99650.78;5088875;28;20198;-76
2023/12/24 06:56:16;;;;;;;0.73;0.73;;;;;;;9.21;100.00;99656.84;5085247;28;20229;-76
2023/12/24 06:58:43;;;;;;;1.13;1.13;;;;;;;9.13;100.00;99655.84;5084609;28;20205;-72
2023/12/24 07:01:09;;;;;;;0.70;0.70;;;;;;;9.16;100.00;99667.97;5076126;28;20211;-75
2023/12/24 07:03:36;;;;;;;1.47;1.47;;;;;;;9.16;99.82;99670.56;5087766;28;20210;-76
2023/12/24 07:06:04;;;;;;;1.17;1.17;;;;;;;9.11;100.00;99660.16;5063048;28;20198;-76
2023/12/24 07:08:31;;;;;;;1.73;0.83;;;;;;;9.16;100.00;99666.28;5056201;28;20201;-77
2023/12/24 07:11:00;;;;;;;1.30;1.30;;;;;;;9.36;100.00;99659.63;5091509;28;20198;-80
2023/12/24 07:13:26;;;;;;;3.63;2.10;;;;;;;9.46;100.00;99661.47;5080496;28;20263;-74
2023/12/24 07:15:53;;;;;;;1.27;1.27;;;;;;;9.18;100.00;99630.94;5085802;28;20222;-70
2023/12/24 07:18:20;;;;;;;1.73;1.60;;;;;;;9.51;100.00;99663.25;5089026;28;20198;-72
2023/12/24 07:20:47;;;;;;;4.23;1.70;;;;;;;9.64;99.25;99654.78;5075942;28;20333;-72
2023/12/24 07:23:13;;;;;;;1.30;1.30;;;;;;;9.74;97.49;99662.66;5075165;28;20204;-72
2023/12/24 07:25:40;;;;;;;0.90;0.90;;;;;;;9.77;97.20;99661.88;5065469;28;20230;-76
2023/12/24 07:28:08;;;;;;;2.37;2.20;;;;;;;9.93;96.18;99653.41;5090159;28;20607;-78
2023/12/24 07:30:35;;;;;;;1.73;1.33;;;;;;;10.02;95.36;99669.03;5079282;28;20202;-73
2023/12/24 07:33:03;;;;;;;9.85;1.88;;;;;;;10.00;93.89;99652.59;5077757;28;20205;-81
2023/12/24 07:35:30;;;;;;;0.85;0.85;;;;;;;10.18;92.88;99681.31;5088100;28;20319;-75
2023/12/24 07:37:56;;;;;;;1.58;1.58;;;;;;;10.33;92.01;99673.69;5081282;28;20612;-78
2023/12/24 07:40:22;;;;;;;6.75;1.45;;;;;;;10.47;90.82;99675.53;5090584;28;20213;-75
2023/12/24 07:42:49;;;;;;;1.02;1.02;;;;;;;10.45;91.00;99681.56;5089024;28;20668;-77
2023/12/24 07:45:19;;;;;;;0.80;0.80;;;;;;;10.47;91.29;99679.00;5071668;28;20206;-75
2023/12/24 07:47:46;;;;;;;0.95;0.95;;;;;;;10.54;89.97;99680.78;5076642;28;20205;-73
2023/12/24 07:50:12;;;;;;;1.58;1.50;;;;;;;10.63;89.97;99695.56;5062645;28;20203;-77
2023/12/24 07:52:39;;;;;;;1.58;1.48;;;;;;;10.66;89.41;99693.00;5080357;28;20199;-72
2023/12/24 07:55:06;;;;;;;1.08;1.08;;;;;;;10.50;89.27;99670.38;5086496;28;20198;-74
2023/12/24 07:57:33;;;;;;;0.60;0.60;;;;;;;10.53;89.16;99670.41;5057404;28;20222;-74
2023/12/24 08:00:00;;;;;;;0.80;0.80;;;;;;;10.67;89.25;99697.31;5086568;28;20209;-74
2023/12/24 08:02:28;;;;;;;1.27;1.27;;;;;;;10.82;89.01;99705.22;5054419;28;20271;-69
2023/12/24 08:04:55;;;;;;;0.88;0.88;;;;;;;10.85;88.52;99692.28;5090015;28;20657;-77
2023/12/24 08:07:23;;;;;;;5.53;2.95;;;;;;;10.98;87.04;99688.94;5095433;28;20598;-73
2023/12/24 08:09:50;;;;;;;5.70;2.58;;;;;;;10.90;86.41;99670.72;5094477;28;20279;-77
2023/12/24 08:12:16;;;;;;;1.90;1.80;;;;;;;11.19;85.71;99699.44;5090629;28;20190;-76
2023/12/24 08:14:43;;;;;;;3.85;2.97;;;;;;;11.28;84.91;99699.50;5092327;28;20206;-76
2023/12/24 08:17:10;;;;;;;1.42;1.20;;;;;;;11.22;84.40;99691.69;5095913;28;20233;-81
2023/12/24 08:19:38;;;;;;;1.15;1.15;;;;;;;11.14;84.09;99649.25;5077933;28;20285;-79
2023/12/24 08:22:05;;;;;;;1.20;1.17;;;;;;;11.31;83.02;99678.75;5086244;28;20244;-77
2023/12/24 08:24:33;;;;;;;0.70;0.70;;;;;;;11.52;82.91;99697.91;5090679;28;20240;-80
2023/12/24 08:27:00;;;;;;;0.80;0.80;;;;;;;11.64;82.68;99703.13;5085155;28;20218;-79
2023/12/24 08:29:27;;;;;;;1.38;1.38;;;;;;;11.69;81.49;99717.03;5094568;28;20566;-80
2023/12/24 08:31:56;;;;;;;2.45;2.30;;;;;;;11.78;81.03;99722.28;5094111;28;20194;-70
2023/12/24 08:34:23;;;;;;;12.02;2.25;;;;;;;11.92;79.89;99707.59;5069969;28;20751;-72
2023/12/24 08:36:51;;;;;;;2.13;1.80;;;;;;;12.05;79.57;99701.59;5066525;28;20688;-73
2023/12/24 08:39:18;;;;;;;1.35;1.35;;;;;;;12.00;79.16;99703.31;5089187;28;20202;-73
2023/12/24 08:41:45;;;;;;;8.82;1.80;;;;;;;12.07;78.28;99697.28;5088782;28;20199;-73
2023/12/24 08:44:11;;;;;;;1.08;1.08;;;;;;;12.06;78.08;99695.53;5078453;28;20298;-70
2023/12/24 08:46:39;;;;;;;1.98;1.85;;;;;;;11.67;77.21;99628.72;5094133;28;20213;-72
2023/12/24 08:49:07;;;;;;;1.05;1.05;;;;;;;12.35;77.17;99712.06;5093415;28;20199;-74
2023/12/24 08:51:34;;;;;;;1.52;1.42;;;;;;;12.35;76.65;99701.66;5093744;28;20731;-73
2023/12/24 08:54:02;;;;;;;1.35;1.35;;;;;;;12.46;75.93;99711.19;5108101;28;20622;-74
2023/12/24 08:56:34;;;;;;;2.78;2.45;;;;;;;12.33;75.92;99682.59;5083402;28;20230;-74
2023/12/24 08:59:00;;;;;;;2.70;2.45;;;;;;;12.31;75.56;99673.91;5086391;28;20237;-75
2023/12/24 09:01:27;;;;;;;6.80;1.60;;;;;;;12.35;75.30;99686.06;5081896;28;20225;-74
2023/12/24 09:03:54;;;;;;;3.38;2.78;;;;;;;12.48;75.34;99681.75;5100490;28;20713;-70
2023/12/24 09:06:21;;;;;;;28.88;3.80;;;;;;;12.69;76.33;99678.31;5082550;28;20198;-73
2023/12/24 09:08:47;;;;;;;0.55;0.55;;;;;;;12.62;72.28;99671.34;5089709;28;20198;-72
2023/12/24 09:11:16;;;;;;;0.63;0.63;;;;;;;12.34;70.73;99585.53;5086600;28;20198;-77
2023/12/24 09:13:43;;;;;;;0.80;0.80;;;;;;;13.00;71.08;99669.59;5093002;28;20857;-82
2023/12/24 09:16:09;;;;;;;2.17;2.08;;;;;;;13.03;70.87;99659.19;5083147;28;20213;-83
2023/12/24 09:18:36;;;;;;;0.60;0.60;;;;;;;13.03;72.76;99660.91;5087784;28;20693;-74
2023/12/24 09:21:03;;;;;;;1.00;1.00;;;;;;;12.89;69.89;99658.31;5095994;28;20338;-72
2023/12/24 09:23:30;;;;;;;0.80;0.80;;;;;;;12.93;70.32;99660.06;5091093;28;20199;-72
2023/12/24 09:25:56;;;;;;;1.30;1.20;;;;;;;12.93;70.37;99649.66;5082276;28;20201;-72
2023/12/24 09:28:24;;;;;;;1.08;1.08;;;;;;;13.06;70.04;99653.97;5078128;28;20203;-72
2023/12/24 09:30:51;;;;;;;1.95;1.17;;;;;;;13.27;68.62;99650.50;5078408;28;20229;-72
2023/12/24 09:33:18;;;;;;;0.60;0.60;;;;;;;13.23;68.44;99648.78;5084564;28;20198;-72
2023/12/24 09:35:45;;;;;;;0.68;0.68;;;;;;;13.49;72.06;99654.75;5081465;28;20222;-71
2023/12/24 09:38:11;;;;;;;1.77;1.38;;;;;;;13.28;67.74;99624.44;5091139;28;20202;-71
2023/12/24 09:40:38;;;;;;;1.25;1.15;;;;;;;13.39;66.97;99653.91;5082217;28;20206;-73
2023/12/24 09:43:05;;;;;;;0.65;0.65;;;;;;;13.38;67.77;99652.16;5074515;28;20206;-72
2023/12/24 09:45:34;;;;;;;0.93;0.93;;;;;;;13.38;67.64;99643.50;5086058;28;20198;-73
2023/12/24 09:48:01;;;;;;;0.60;0.60;;;;;;;13.39;68.42;99651.31;5056953;28;20233;-72
2023/12/24 09:50:28;;;;;;;3.33;1.17;;;;;;;13.44;66.88;99653.03;5086508;28;20203;-72
2023/12/24 09:52:54;;;;;;;0.88;0.88;;;;;;;13.39;66.62;99650.44;5086765;28;20245;-76
2023/12/24 09:55:21;;;;;;;0.60;0.60;;;;;;;13.40;67.23;99627.00;5082141;28;20578;-76
2023/12/24 09:57:48;;;;;;;1.00;1.00;;;;;;;13.43;67.36;99651.28;5083586;28;20267;-76
2023/12/24 10:00:16;;;;;;;0.60;0.60;;;;;;;13.33;66.76;99646.13;5091857;28;20662;-73
2023/12/24 10:02:45;;;;;;;0.70;0.70;;;;;;;13.32;66.96;99659.13;5083066;28;20205;-72
2023/12/24 10:05:14;;;;;;;0.73;0.73;;;;;;;13.22;66.79;99645.28;5090310;28;20209;-73
2023/12/24 10:07:45;;;;;;;0.70;0.70;;;;;;;13.31;67.97;99636.56;5095453;28;20544;-73
2023/12/24 10:10:13;;;;;;;0.80;0.80;;;;;;;13.34;67.84;99637.44;5077353;28;20225;-72
2023/12/24 10:12:40;;;;;;;0.93;0.93;;;;;;;13.36;67.36;99625.28;5083709;28;20215;-72
2023/12/24 10:15:08;;;;;;;0.80;0.80;;;;;;;13.15;68.49;99621.88;5083406;28;20190;-78
2023/12/24 10:17:36;;;;;;;0.80;0.80;;;;;;;13.25;68.67;99634.00;5068403;28;20222;-78
2023/12/24 10:20:08;;;;;;;1.13;1.13;;;;;;;13.23;67.89;99612.31;5090345;28;20202;-77
2023/12/24 10:22:35;;;;;;;29.13;1.85;;;;;;;13.34;67.61;99621.81;5077535;28;20206;-78
2023/12/24 10:25:04;;;;;;;0.70;0.70;;;;;;;13.37;66.86;99620.94;5082665;28;20194;-75
2023/12/24 10:27:31;;;;;;;1.50;1.50;;;;;;;13.50;66.59;99619.16;5093275;28;20202;-73
2023/12/24 10:30:10;;;;;;;2.65;2.55;;;;;;;13.29;67.82;99602.75;5075271;28;20214;-72
2023/12/24 10:32:37;;;;;;;0.98;0.98;;;;;;;13.47;68.67;99606.16;5086093;28;20230;-72
2023/12/24 10:35:05;;;;;;;1.13;1.02;;;;;;;13.52;65.81;99627.84;5065847;28;20225;-73
2023/12/24 10:37:33;;;;;;;2.58;0.80;;;;;;;13.29;66.77;99581.03;5063273;28;20226;-71
2023/12/24 10:40:08;;;;;;;8.73;2.75;;;;;;;13.57;65.44;99603.50;5092043;28;20285;-70
2023/12/24 10:42:36;;;;;;;8.48;4.63;;;;;;;13.06;64.57;99523.81;5088206;28;20233;-74
2023/12/24 10:45:03;;;;;;;3.70;3.42;;;;;;;13.40;64.75;99590.56;5086163;28;20238;-74
2023/12/24 10:47:30;;;;;;;15.27;8.50;;;;;;;13.51;64.16;99608.75;5077404;28;20238;-76
2023/12/24 10:49:57;;;;;;;1.52;1.42;;;;;;;12.96;64.12;99485.72;5093069;28;20205;-80
2023/12/24 10:52:25;;;;;;;5.75;3.28;;;;;;;13.48;65.82;99541.03;5092728;28;20221;-78
2023/12/24 10:54:54;;;;;;;1.30;1.25;;;;;;;13.77;63.54;99598.16;5091872;28;20202;-80
2023/12/24 10:57:34;;;;;;;4.40;3.60;;;;;;;13.74;62.70;99574.72;5097628;28;20232;-78
2023/12/24 11:00:09;;;;;;;2.40;1.55;;;;;;;13.51;63.08;99547.97;5085879;28;20201;-72
2023/12/24 11:02:37;;;;;;;0.93;0.93;;;;;;;13.48;63.00;99567.09;5088267;28;20204;-72
2023/12/24 11:05:05;;;;;;;2.92;0.85;;;;;;;13.90;65.67;99594.63;5090762;28;20224;-68
2023/12/24 11:07:49;;;;;;;1.48;1.30;;;;;;;13.84;61.90;99571.22;5090588;28;20194;-70
2023/12/24 11:10:42;;;;;;;0.60;0.60;;;;;;;13.91;61.33;99575.53;5042948;28;20655;-71
2023/12/24 11:13:10;;;;;;;1.10;1.05;;;;;;;13.96;62.08;99620.66;5012602;28;20279;-79
2023/12/24 11:15:41;;;;;;;3.92;1.70;;;;;;;13.94;62.22;99598.94;5018825;28;20208;-77
2023/12/24 11:18:09;;;;;;;3.13;1.67;;;;;;;13.87;61.92;99615.50;5014798;28;20311;-71
2023/12/24 11:20:40;;;;;;;11.60;1.90;;;;;;;13.94;62.29;99614.59;5028302;28;20288;-71
2023/12/24 11:23:16;;;;;;;5.40;3.88;;;;;;;13.99;61.92;99619.75;5028186;28;20663;-71
2023/12/24 11:25:45;;;;;;;16.80;5.15;;;;;;;13.89;63.12;99605.91;5028472;28;20805;-72
2023/12/24 11:28:13;;;;;;;2.63;2.40;;;;;;;13.26;62.77;99519.47;5028133;28;20212;-71
2023/12/24 11:31:02;;;;;;;1.17;0.75;;;;;;;14.00;62.75;99622.34;5028248;28;20753;-72
2023/12/24 11:33:48;;;;;;;1.02;1.02;;;;;;;13.91;60.95;99607.63;5027534;28;20612;-71
2023/12/24 11:36:17;;;;;;;0.70;0.70;;;;;;;14.08;61.24;99620.59;5020084;28;20216;-69
2023/12/24 11:38:46;;;;;;;0.80;0.80;;;;;;;13.98;61.27;99569.38;5032075;28;20192;-81